Time;durP1;ratioP1;P1;durP2;ratioP2;P2;SDS_P1;SDS_P2;PMS_P1;PMS_P2;Temp;Humidity;BMP_temperature;BMP_pressure;BME280_temperature;BME280_humidity;BME280_pressure;Samples;Min_cycle;Max_cycle;Signal;HPM_P1;HPM_P2
2023/06/30 00:01:48;;;;;;;4.95;1.98;;;;;;;;;;5046743;28;20488;-63
2023/06/30 00:04:16;;;;;;;4.47;1.98;;;;;;;;;;5039438;28;20022;-63
2023/06/30 00:06:42;;;;;;;6.55;2.33;;;;;;;;;;5050718;28;20032;-65
2023/06/30 00:09:07;;;;;;;6.85;2.22;;;;;;;;;;5049755;28;20017;-65
2023/06/30 00:11:32;;;;;;;4.63;1.90;;;;;;;;;;5050223;28;20052;-65
2023/06/30 00:13:57;;;;;;;4.97;2.35;;;;;;;;;;5042125;28;20301;-64
2023/06/30 00:16:22;;;;;;;4.18;1.90;;;;;;;;;;5050886;28;20214;-63
2023/06/30 00:18:47;;;;;;;4.33;2.03;;;;;;;;;;5050809;28;20045;-64
2023/06/30 00:21:13;;;;;;;5.50;2.00;;;;;;;;;;5051030;28;20025;-64
2023/06/30 00:23:38;;;;;;;4.72;2.20;;;;;;;;;;5049319;28;20460;-64
2023/06/30 00:26:03;;;;;;;5.87;1.97;;;;;;;;;;5050492;28;20037;-63
2023/06/30 00:28:28;;;;;;;4.78;2.20;;;;;;;;;;5042443;28;20029;-65
2023/06/30 00:30:53;;;;;;;4.32;1.90;;;;;;;;;;5047261;28;20071;-62
2023/06/30 00:33:19;;;;;;;4.35;2.00;;;;;;;;;;5041616;28;20034;-63
2023/06/30 00:35:44;;;;;;;4.47;2.30;;;;;;;;;;5047161;28;20452;-65
2023/06/30 00:38:09;;;;;;;5.40;2.20;;;;;;;;;;5047839;28;20163;-63
2023/06/30 00:40:34;;;;;;;5.53;2.17;;;;;;;;;;5051843;28;20055;-62
2023/06/30 00:43:00;;;;;;;5.03;2.30;;;;;;;;;;5036330;28;20034;-63
2023/06/30 00:45:25;;;;;;;5.20;2.15;;;;;;;;;;5038182;28;20079;-64
2023/06/30 00:47:51;;;;;;;5.47;2.38;;;;;;;;;;5042257;28;20468;-63
2023/06/30 00:50:16;;;;;;;5.85;2.15;;;;;;;;;;5037876;28;20036;-64
2023/06/30 00:52:42;;;;;;;5.70;2.20;;;;;;;;;;5046029;28;20028;-64
2023/06/30 00:55:07;;;;;;;4.88;2.20;;;;;;;;;;5047241;28;20033;-64
2023/06/30 00:57:33;;;;;;;4.35;2.30;;;;;;;;;;5045767;28;20031;-63
2023/06/30 01:00:05;;;;;;;4.68;2.15;;;;;;;;;;5036400;28;20108;-65
2023/06/30 01:02:30;;;;;;;;;;;;;;;;;;5047424;28;20053;-64
2023/06/30 01:05:15;;;;;;;4.72;2.10;;;;;;;;;;5042375;28;19940;-63
2023/06/30 01:07:46;;;;;;;4.60;1.98;;;;;;;;;;5043358;28;20078;-64
2023/06/30 01:10:14;;;;;;;4.82;1.98;;;;;;;;;;5047108;28;20029;-65
2023/06/30 01:12:40;;;;;;;4.45;2.10;;;;;;;;;;5049551;28;20028;-64
2023/06/30 01:15:06;;;;;;;5.28;2.53;;;;;;;;;;5036728;28;20029;-63
2023/06/30 01:17:32;;;;;;;4.70;2.22;;;;;;;;;;5039962;28;20498;-63
2023/06/30 01:19:59;;;;;;;4.65;1.95;;;;;;;;;;5045252;28;20036;-64
2023/06/30 01:22:27;;;;;;;5.63;2.35;;;;;;;;;;5045091;28;20142;-64
2023/06/30 01:24:56;;;;;;;4.75;2.10;;;;;;;;;;5040588;28;20021;-64
2023/06/30 01:27:21;;;;;;;4.70;2.20;;;;;;;;;;5042518;28;20075;-63
2023/06/30 01:29:47;;;;;;;4.63;2.20;;;;;;;;;;5033500;28;20029;-63
2023/06/30 01:32:17;;;;;;;4.10;2.10;;;;;;;;;;5040749;28;20486;-64
2023/06/30 01:34:45;;;;;;;4.53;2.15;;;;;;;;;;5036020;28;20061;-65
2023/06/30 01:37:11;;;;;;;4.43;2.15;;;;;;;;;;5044435;28;20021;-63
2023/06/30 01:39:36;;;;;;;5.88;2.20;;;;;;;;;;5054565;28;20020;-63
2023/06/30 01:42:01;;;;;;;3.90;1.75;;;;;;;;;;5055059;28;20504;-64
2023/06/30 01:44:27;;;;;;;4.32;2.03;;;;;;;;;;5041546;28;20025;-62
2023/06/30 01:46:52;;;;;;;4.90;2.50;;;;;;;;;;5044524;28;20013;-63
2023/06/30 01:49:17;;;;;;;4.90;2.50;;;;;;;;;;5046153;28;20020;-65
2023/06/30 01:51:42;;;;;;;4.40;2.20;;;;;;;;;;5050495;28;20384;-64
2023/06/30 01:54:07;;;;;;;6.23;2.30;;;;;;;;;;5044610;28;20444;-64
2023/06/30 01:56:34;;;;;;;4.70;1.97;;;;;;;;;;5042515;28;20027;-65
2023/06/30 01:58:59;;;;;;;4.90;2.17;;;;;;;;;;5047278;28;20549;-64
2023/06/30 02:01:25;;;;;;;5.38;2.30;;;;;;;;;;5042037;28;20156;-61
2023/06/30 02:03:51;;;;;;;4.22;2.05;;;;;;;;;;5046040;28;20145;-64
2023/06/30 02:06:16;;;;;;;5.57;2.30;;;;;;;;;;5054434;28;20068;-64
2023/06/30 02:08:41;;;;;;;4.90;2.20;;;;;;;;;;5049927;28;20104;-65
2023/06/30 02:11:06;;;;;;;5.57;2.45;;;;;;;;;;5050409;28;20074;-63
2023/06/30 02:13:31;;;;;;;4.70;2.05;;;;;;;;;;5051527;28;20017;-63
2023/06/30 02:15:57;;;;;;;5.50;2.60;;;;;;;;;;5052071;28;20053;-61
2023/06/30 02:18:22;;;;;;;5.78;2.13;;;;;;;;;;5053470;28;20033;-62
2023/06/30 02:20:47;;;;;;;4.67;2.17;;;;;;;;;;5054242;28;20480;-63
2023/06/30 02:23:12;;;;;;;4.33;2.20;;;;;;;;;;5051008;28;20029;-63
2023/06/30 02:25:37;;;;;;;4.87;2.40;;;;;;;;;;5056457;28;20067;-64
2023/06/30 02:28:02;;;;;;;6.90;2.40;;;;;;;;;;5056962;28;20021;-64
2023/06/30 02:30:28;;;;;;;6.43;2.40;;;;;;;;;;5049182;28;20021;-64
2023/06/30 02:32:53;;;;;;;4.50;2.30;;;;;;;;;;5052257;28;20056;-64
2023/06/30 02:35:18;;;;;;;5.37;2.33;;;;;;;;;;5051393;28;20162;-64
2023/06/30 02:37:43;;;;;;;4.63;1.92;;;;;;;;;;5054999;28;20028;-66
2023/06/30 02:40:09;;;;;;;4.57;2.40;;;;;;;;;;5053844;28;20049;-65
2023/06/30 02:42:34;;;;;;;5.65;2.33;;;;;;;;;;5056090;28;20033;-65
2023/06/30 02:44:59;;;;;;;4.63;2.17;;;;;;;;;;5053718;28;20715;-64
2023/06/30 02:47:24;;;;;;;4.57;2.00;;;;;;;;;;5052034;28;20021;-62
2023/06/30 02:49:49;;;;;;;4.93;2.08;;;;;;;;;;5054919;28;20396;-65
2023/06/30 02:52:14;;;;;;;4.72;2.40;;;;;;;;;;5052972;28;20428;-64
2023/06/30 02:54:40;;;;;;;4.57;2.03;;;;;;;;;;5045894;28;20025;-64
2023/06/30 02:57:05;;;;;;;5.63;2.35;;;;;;;;;;5042166;28;20028;-64
2023/06/30 02:59:30;;;;;;;5.20;2.08;;;;;;;;;;5051970;28;20053;-64
2023/06/30 03:01:55;;;;;;;4.50;2.08;;;;;;;;;;5052346;28;20033;-64
2023/06/30 03:04:20;;;;;;;5.27;2.33;;;;;;;;;;5052616;28;20032;-65
2023/06/30 03:06:47;;;;;;;5.38;2.08;;;;;;;;;;5054311;28;20096;-66
2023/06/30 03:09:12;;;;;;;5.88;2.38;;;;;;;;;;5056484;28;20032;-65
2023/06/30 03:11:38;;;;;;;5.30;2.20;;;;;;;;;;5041668;28;20033;-65
2023/06/30 03:14:03;;;;;;;4.22;1.98;;;;;;;;;;5048111;28;20064;-65
2023/06/30 03:16:28;;;;;;;5.55;2.58;;;;;;;;;;5042680;28;20055;-64
2023/06/30 03:18:53;;;;;;;4.53;2.10;;;;;;;;;;5053341;28;20029;-64
2023/06/30 03:21:19;;;;;;;4.80;2.40;;;;;;;;;;5053040;28;20017;-63
2023/06/30 03:23:45;;;;;;;5.82;2.50;;;;;;;;;;5038550;28;20103;-62
2023/06/30 03:26:10;;;;;;;6.07;2.35;;;;;;;;;;5046320;28;20028;-64
2023/06/30 03:28:35;;;;;;;5.97;2.40;;;;;;;;;;5047781;28;20104;-63
2023/06/30 03:31:00;;;;;;;4.97;2.55;;;;;;;;;;5064503;28;20029;-64
2023/06/30 03:33:26;;;;;;;4.83;2.43;;;;;;;;;;5059846;28;20019;-64
2023/06/30 03:35:51;;;;;;;5.45;2.50;;;;;;;;;;5074596;28;20017;-64
2023/06/30 03:38:17;;;;;;;5.97;2.60;;;;;;;;;;5071906;28;20024;-64
2023/06/30 03:40:42;;;;;;;5.72;2.60;;;;;;;;;;5066172;28;20538;-64
2023/06/30 03:43:07;;;;;;;8.00;2.90;;;;;;;;;;5055327;28;20033;-64
2023/06/30 03:45:32;;;;;;;5.70;2.60;;;;;;;;;;5053308;28;20380;-65
2023/06/30 03:47:58;;;;;;;4.73;2.60;;;;;;;;;;5053336;28;20539;-65
2023/06/30 03:50:23;;;;;;;5.25;2.60;;;;;;;;;;5045536;28;20025;-64
2023/06/30 03:52:48;;;;;;;5.03;2.43;;;;;;;;;;5052340;28;20020;-64
2023/06/30 03:55:13;;;;;;;5.03;2.50;;;;;;;;;;5059587;28;20033;-64
2023/06/30 03:57:38;;;;;;;5.53;2.42;;;;;;;;;;5055731;28;20115;-65
2023/06/30 04:00:04;;;;;;;6.57;2.88;;;;;;;;;;5056139;28;20587;-64
2023/06/30 04:02:29;;;;;;;5.43;2.40;;;;;;;;;;5052633;28;20079;-65
2023/06/30 04:04:54;;;;;;;4.45;2.28;;;;;;;;;;5053850;28;20032;-64
2023/06/30 04:07:19;;;;;;;7.20;2.70;;;;;;;;;;5045369;28;20029;-65
2023/06/30 04:09:44;;;;;;;6.57;2.63;;;;;;;;;;5061079;28;20020;-64
2023/06/30 04:12:10;;;;;;;8.90;2.42;;;;;;;;;;5055389;28;20511;-63
2023/06/30 04:14:35;;;;;;;6.27;2.80;;;;;;;;;;5048562;28;20051;-64
2023/06/30 04:17:00;;;;;;;5.75;2.60;;;;;;;;;;5042662;28;20017;-65
2023/06/30 04:19:25;;;;;;;6.38;2.70;;;;;;;;;;5052271;28;20021;-64
2023/06/30 04:21:50;;;;;;;5.70;2.80;;;;;;;;;;5047461;28;20064;-62
2023/06/30 04:24:15;;;;;;;5.85;2.70;;;;;;;;;;5044308;28;20036;-64
2023/06/30 04:26:40;;;;;;;8.50;2.87;;;;;;;;;;5040124;28;20025;-64
2023/06/30 04:29:06;;;;;;;8.40;3.05;;;;;;;;;;5040392;28;20029;-62
2023/06/30 04:31:31;;;;;;;7.20;2.83;;;;;;;;;;5047516;28;20021;-65
2023/06/30 04:33:56;;;;;;;7.03;2.63;;;;;;;;;;5045551;28;20086;-65
2023/06/30 04:36:21;;;;;;;5.30;2.90;;;;;;;;;;5032614;28;20571;-63
2023/06/30 04:38:48;;;;;;;5.70;2.70;;;;;;;;;;5048260;28;20024;-64
2023/06/30 04:41:13;;;;;;;4.95;2.60;;;;;;;;;;5041504;28;20036;-65
2023/06/30 04:43:39;;;;;;;8.02;2.80;;;;;;;;;;5053832;28;20029;-63
2023/06/30 04:46:04;;;;;;;6.50;3.17;;;;;;;;;;5032230;28;20374;-64
2023/06/30 04:48:29;;;;;;;7.53;2.90;;;;;;;;;;5057843;28;20033;-64
2023/06/30 04:50:54;;;;;;;7.38;3.50;;;;;;;;;;5045938;28;20476;-64
2023/06/30 04:53:20;;;;;;;10.38;2.95;;;;;;;;;;5034029;28;20060;-62
2023/06/30 04:55:45;;;;;;;6.23;3.00;;;;;;;;;;5028367;28;20128;-63
2023/06/30 04:58:11;;;;;;;5.90;2.67;;;;;;;;;;5031768;28;20018;-64
2023/06/30 05:00:36;;;;;;;6.00;2.70;;;;;;;;;;5037960;28;20049;-63
2023/06/30 05:03:02;;;;;;;4.97;2.60;;;;;;;;;;5031970;28;20029;-64
2023/06/30 05:05:27;;;;;;;4.93;2.83;;;;;;;;;;5041022;28;20082;-63
2023/06/30 05:07:53;;;;;;;6.65;3.38;;;;;;;;;;5035154;28;20671;-63
2023/06/30 05:10:18;;;;;;;4.97;2.35;;;;;;;;;;5030557;28;20040;-64
2023/06/30 05:12:44;;;;;;;6.10;2.80;;;;;;;;;;5045287;28;20025;-66
2023/06/30 05:15:09;;;;;;;6.85;3.20;;;;;;;;;;5046274;28;20021;-64
2023/06/30 05:17:34;;;;;;;6.50;3.00;;;;;;;;;;5034601;28;20032;-64
2023/06/30 05:20:00;;;;;;;6.18;3.30;;;;;;;;;;5030211;28;20092;-64
2023/06/30 05:22:25;;;;;;;9.02;3.25;;;;;;;;;;5032286;28;20072;-66
2023/06/30 05:24:50;;;;;;;5.07;2.87;;;;;;;;;;5036334;28;20021;-67
2023/06/30 05:27:15;;;;;;;5.60;2.85;;;;;;;;;;5031340;28;20507;-66
2023/06/30 05:29:40;;;;;;;6.20;3.10;;;;;;;;;;5031384;28;20053;-65
2023/06/30 05:32:06;;;;;;;6.53;2.78;;;;;;;;;;5031097;28;20036;-66
2023/06/30 05:34:32;;;;;;;5.22;2.78;;;;;;;;;;5030300;28;20025;-67
2023/06/30 05:36:57;;;;;;;5.85;3.03;;;;;;;;;;5051127;28;20025;-67
2023/06/30 05:39:22;;;;;;;5.70;3.03;;;;;;;;;;5051348;28;20103;-65
2023/06/30 05:41:47;;;;;;;4.95;2.90;;;;;;;;;;5052450;28;20171;-66
2023/06/30 05:44:13;;;;;;;7.03;3.20;;;;;;;;;;5051592;28;20025;-65
2023/06/30 05:46:38;;;;;;;6.70;3.33;;;;;;;;;;5045854;28;20103;-67
2023/06/30 05:49:05;;;;;;;8.27;3.83;;;;;;;;;;5043470;28;20044;-66
2023/06/30 05:51:33;;;;;;;4.90;2.83;;;;;;;;;;5050611;28;20040;-67
2023/06/30 05:53:58;;;;;;;6.32;2.92;;;;;;;;;;5035224;28;20030;-67
2023/06/30 05:56:24;;;;;;;7.43;3.40;;;;;;;;;;5041231;28;20041;-66
2023/06/30 05:58:50;;;;;;;;;;;;;;;;;;5043660;28;20057;-67
2023/06/30 06:01:17;;;;;;;8.85;3.40;;;;;;;;;;5042440;28;19936;-67
2023/06/30 06:03:42;;;;;;;10.07;3.10;;;;;;;;;;5046357;28;20528;-66
2023/06/30 06:06:07;;;;;;;7.45;2.97;;;;;;;;;;5052357;28;20041;-64
2023/06/30 06:08:33;;;;;;;8.00;3.38;;;;;;;;;;5053499;28;20045;-66
2023/06/30 06:10:58;;;;;;;6.32;3.05;;;;;;;;;;5031903;28;20022;-66
2023/06/30 06:13:33;;;;;;;7.88;3.50;;;;;;;;;;5040397;28;20041;-66
2023/06/30 06:15:58;;;;;;;6.22;2.90;;;;;;;;;;5042195;28;20029;-67
2023/06/30 06:18:23;;;;;;;6.40;3.23;;;;;;;;;;5030534;28;20022;-68
2023/06/30 06:20:49;;;;;;;9.07;2.90;;;;;;;;;;5030821;28;20099;-65
2023/06/30 06:23:14;;;;;;;6.70;2.70;;;;;;;;;;5048814;28;20104;-65
2023/06/30 06:25:39;;;;;;;5.90;2.88;;;;;;;;;;5039279;28;20034;-65
2023/06/30 06:28:04;;;;;;;7.38;3.15;;;;;;;;;;5030748;28;20036;-68
2023/06/30 06:30:29;;;;;;;8.55;3.00;;;;;;;;;;5041672;28;20475;-66
2023/06/30 06:32:54;;;;;;;7.00;2.90;;;;;;;;;;5029775;28;20050;-67
2023/06/30 06:35:19;;;;;;;9.60;3.22;;;;;;;;;;5039266;28;20033;-66
2023/06/30 06:37:45;;;;;;;5.47;3.33;;;;;;;;;;5045115;28;20438;-67
2023/06/30 06:40:10;;;;;;;5.45;2.80;;;;;;;;;;5035793;28;20044;-63
2023/06/30 06:42:35;;;;;;;5.83;2.80;;;;;;;;;;5039882;28;20037;-62
2023/06/30 06:45:00;;;;;;;6.13;2.85;;;;;;;;;;5030117;28;20075;-62
2023/06/30 06:47:44;;;;;;;7.20;3.40;;;;;;;;;;5042434;28;20415;-62
2023/06/30 06:50:09;;;;;;;7.82;3.20;;;;;;;;;;5047412;28;20090;-65
2023/06/30 06:52:35;;;;;;;6.53;2.95;;;;;;;;;;5032501;28;20469;-64
2023/06/30 06:55:00;;;;;;;9.13;3.50;;;;;;;;;;5031982;28;20020;-62
2023/06/30 06:57:25;;;;;;;5.67;3.20;;;;;;;;;;5031997;28;20497;-64
2023/06/30 06:59:50;;;;;;;8.47;3.70;;;;;;;;;;5031937;28;20040;-64
2023/06/30 07:02:15;;;;;;;6.20;3.40;;;;;;;;;;5044733;28;20040;-63
2023/06/30 07:04:40;;;;;;;7.18;3.30;;;;;;;;;;5031798;28;20048;-61
2023/06/30 07:07:05;;;;;;;6.93;3.70;;;;;;;;;;5034008;28;20037;-61
2023/06/30 07:09:31;;;;;;;7.70;3.25;;;;;;;;;;5033909;28;20060;-61
2023/06/30 07:11:56;;;;;;;8.55;3.13;;;;;;;;;;5033892;28;20018;-61
2023/06/30 07:14:22;;;;;;;7.88;3.40;;;;;;;;;;5044265;28;20032;-62
2023/06/30 07:16:49;;;;;;;7.72;3.10;;;;;;;;;;5041313;28;20025;-65
2023/06/30 07:19:14;;;;;;;7.05;3.42;;;;;;;;;;5033509;28;20097;-64
2023/06/30 07:21:39;;;;;;;7.55;3.63;;;;;;;;;;5033793;28;20509;-63
2023/06/30 07:24:05;;;;;;;8.60;3.30;;;;;;;;;;5033042;28;20029;-62
2023/06/30 07:26:31;;;;;;;7.35;3.00;;;;;;;;;;5048572;28;20032;-63
2023/06/30 07:28:56;;;;;;;6.20;2.90;;;;;;;;;;5053608;28;20033;-62
2023/06/30 07:31:21;;;;;;;6.88;3.33;;;;;;;;;;5053264;28;20029;-63
2023/06/30 07:33:46;;;;;;;7.95;3.75;;;;;;;;;;5052509;28;20025;-62
2023/06/30 07:36:11;;;;;;;7.55;3.33;;;;;;;;;;5053182;28;20488;-63
2023/06/30 07:38:37;;;;;;;6.73;3.13;;;;;;;;;;5052790;28;20021;-63
2023/06/30 07:41:02;;;;;;;6.67;3.47;;;;;;;;;;5040521;28;20021;-62
2023/06/30 07:43:27;;;;;;;7.57;3.33;;;;;;;;;;5032533;28;20051;-62
2023/06/30 07:45:52;;;;;;;8.60;3.20;;;;;;;;;;5029646;28;20009;-61
2023/06/30 07:48:17;;;;;;;7.07;2.93;;;;;;;;;;5032978;28;20115;-64
2023/06/30 07:50:42;;;;;;;8.38;3.90;;;;;;;;;;5033212;28;20436;-65
2023/06/30 07:53:08;;;;;;;4.90;2.73;;;;;;;;;;5032300;28;20508;-64
2023/06/30 07:55:33;;;;;;;6.57;3.67;;;;;;;;;;5032616;28;20424;-64
2023/06/30 07:57:59;;;;;;;6.97;3.60;;;;;;;;;;5032880;28;20044;-63
2023/06/30 08:00:28;;;;;;;6.30;2.92;;;;;;;;;;5032890;28;20139;-63
2023/06/30 08:02:54;;;;;;;6.28;3.13;;;;;;;;;;5030390;28;20048;-64
2023/06/30 08:05:19;;;;;;;7.18;3.47;;;;;;;;;;5032878;28;20017;-63
2023/06/30 08:07:45;;;;;;;10.60;4.07;;;;;;;;;;5042152;28;20026;-62
2023/06/30 08:10:10;;;;;;;7.95;3.83;;;;;;;;;;5031860;28;20505;-63
2023/06/30 08:12:35;;;;;;;7.30;3.53;;;;;;;;;;5039866;28;20112;-62
2023/06/30 08:15:01;;;;;;;7.50;3.70;;;;;;;;;;5051375;28;20071;-62
2023/06/30 08:17:26;;;;;;;6.57;3.60;;;;;;;;;;5053122;28;20021;-63
2023/06/30 08:19:51;;;;;;;7.95;3.45;;;;;;;;;;5050236;28;20013;-62
2023/06/30 08:22:18;;;;;;;6.77;3.20;;;;;;;;;;5052103;28;20040;-63
2023/06/30 08:24:43;;;;;;;7.75;3.80;;;;;;;;;;5036783;28;20044;-63
2023/06/30 08:27:08;;;;;;;10.63;3.53;;;;;;;;;;5032572;28;20048;-63
2023/06/30 08:29:34;;;;;;;8.57;3.42;;;;;;;;;;5032063;28;20018;-62
2023/06/30 08:31:59;;;;;;;8.40;3.80;;;;;;;;;;5046336;28;20021;-65
2023/06/30 08:34:26;;;;;;;7.97;3.73;;;;;;;;;;5047484;28;20476;-62
2023/06/30 08:36:51;;;;;;;6.72;4.03;;;;;;;;;;5032740;28;20104;-62
2023/06/30 08:39:17;;;;;;;7.90;3.47;;;;;;;;;;5032451;28;20056;-64
2023/06/30 08:41:42;;;;;;;6.65;3.10;;;;;;;;;;5032056;28;20033;-62
2023/06/30 08:44:08;;;;;;;7.43;4.00;;;;;;;;;;5029852;28;20017;-63
2023/06/30 08:46:33;;;;;;;7.45;3.95;;;;;;;;;;5052559;28;20025;-63
2023/06/30 08:48:58;;;;;;;6.77;3.67;;;;;;;;;;5046465;28;20020;-63
2023/06/30 08:51:23;;;;;;;9.20;4.23;;;;;;;;;;5052866;28;20048;-62
2023/06/30 08:53:49;;;;;;;8.57;4.13;;;;;;;;;;5053025;28;20074;-62
2023/06/30 08:56:15;;;;;;;9.55;4.38;;;;;;;;;;5035564;28;20029;-63
2023/06/30 08:58:40;;;;;;;9.68;3.78;;;;;;;;;;5043706;28;20511;-64
2023/06/30 09:01:06;;;;;;;7.15;4.10;;;;;;;;;;5077214;28;20028;-63
2023/06/30 09:03:31;;;;;;;8.40;3.80;;;;;;;;;;5075000;28;20028;-62
2023/06/30 09:05:58;;;;;;;9.73;4.13;;;;;;;;;;5074280;28;20431;-62
2023/06/30 09:08:23;;;;;;;8.00;4.32;;;;;;;;;;5057769;28;20116;-64
2023/06/30 09:10:50;;;;;;;7.85;3.92;;;;;;;;;;5036577;28;20471;-64
2023/06/30 09:13:17;;;;;;;7.03;3.70;;;;;;;;;;5053395;28;20021;-63
2023/06/30 09:15:43;;;;;;;7.70;3.92;;;;;;;;;;5051566;28;20625;-62
2023/06/30 09:18:08;;;;;;;;;;;;;;;;;;5051639;28;20120;-63
2023/06/30 09:20:33;;;;;;;8.40;4.47;;;;;;;;;;5040125;28;20001;-63
2023/06/30 09:23:01;;;;;;;11.83;4.30;;;;;;;;;;5030786;28;20049;-61
2023/06/30 09:25:26;;;;;;;8.40;4.68;;;;;;;;;;5031264;28;20033;-63
2023/06/30 09:27:51;;;;;;;9.98;4.65;;;;;;;;;;5030448;28;20518;-64
2023/06/30 09:30:17;;;;;;;9.23;4.20;;;;;;;;;;5029529;28;20022;-62
2023/06/30 09:32:42;;;;;;;8.38;4.55;;;;;;;;;;5050294;28;20433;-61
2023/06/30 09:35:07;;;;;;;8.60;5.38;;;;;;;;;;5035883;28;20432;-62
2023/06/30 09:37:42;;;;;;;8.10;4.88;;;;;;;;;;5030307;28;20021;-63
2023/06/30 09:40:12;;;;;;;9.63;5.22;;;;;;;;;;5030845;28;20052;-63
2023/06/30 09:42:37;;;;;;;9.35;5.57;;;;;;;;;;5029322;28;20026;-63
2023/06/30 09:45:02;;;;;;;8.38;4.70;;;;;;;;;;5035338;28;20473;-63
2023/06/30 09:47:27;;;;;;;10.30;5.40;;;;;;;;;;5035827;28;20146;-63
2023/06/30 09:49:53;;;;;;;9.35;5.82;;;;;;;;;;5036162;28;20417;-61
2023/06/30 09:52:22;;;;;;;8.90;5.60;;;;;;;;;;5046164;28;20400;-62
2023/06/30 09:54:48;;;;;;;9.85;5.38;;;;;;;;;;5032037;28;20077;-62
2023/06/30 09:57:15;;;;;;;8.57;4.82;;;;;;;;;;5029530;28;20507;-63
2023/06/30 09:59:40;;;;;;;8.75;4.78;;;;;;;;;;5030389;28;20021;-63
2023/06/30 10:02:05;;;;;;;9.32;5.05;;;;;;;;;;5030215;28;20052;-63
2023/06/30 10:04:30;;;;;;;;;;;;;;;;;;5030230;28;20053;-63
2023/06/30 10:06:56;;;;;;;10.52;5.45;;;;;;;;;;5035662;28;19966;-61
2023/06/30 10:09:21;;;;;;;;;;;;;;;;;;5050674;28;20112;-62
2023/06/30 10:11:49;;;;;;;9.20;5.07;;;;;;;;;;5050469;28;19912;-63
2023/06/30 10:14:16;;;;;;;9.57;5.55;;;;;;;;;;5050317;28;20024;-64
2023/06/30 10:16:41;;;;;;;9.88;5.13;;;;;;;;;;5050735;28;20051;-63
2023/06/30 10:19:07;;;;;;;7.73;4.97;;;;;;;;;;5049388;28;20538;-62
2023/06/30 10:21:32;;;;;;;;;;;;;;;;;;5050619;28;20083;-63
2023/06/30 10:23:59;;;;;;;12.10;5.68;;;;;;;;;;5050066;28;19908;-63
2023/06/30 10:26:24;;;;;;;10.05;5.07;;;;;;;;;;5054363;28;20388;-62
2023/06/30 10:28:50;;;;;;;7.57;4.70;;;;;;;;;;5054408;28;20017;-64
2023/06/30 10:31:15;;;;;;;;;;;;;;;;;;5054967;28;20017;-62
2023/06/30 10:33:40;;;;;;;9.05;5.20;;;;;;;;;;5054003;28;19905;-63
2023/06/30 10:36:07;;;;;;;9.45;5.38;;;;;;;;;;5040678;28;20018;-62
2023/06/30 10:38:32;;;;;;;10.32;5.55;;;;;;;;;;5034395;28;20075;-62
2023/06/30 10:41:13;;;;;;;10.32;6.10;;;;;;;;;;5039196;28;20388;-63
2023/06/30 10:43:57;;;;;;;7.95;5.38;;;;;;;;;;5047940;28;20056;-62
2023/06/30 10:46:39;;;;;;;9.27;5.60;;;;;;;;;;5048697;28;20376;-60
2023/06/30 10:49:07;;;;;;;8.95;4.80;;;;;;;;;;5053150;28;20033;-62
2023/06/30 10:51:36;;;;;;;9.25;5.30;;;;;;;;;;5046139;28;20045;-64
2023/06/30 10:54:01;;;;;;;10.40;5.63;;;;;;;;;;5035862;28;20025;-64
2023/06/30 10:56:27;;;;;;;9.47;5.77;;;;;;;;;;5053890;28;20040;-63
2023/06/30 10:58:55;;;;;;;9.35;5.00;;;;;;;;;;5053932;28;20021;-62
2023/06/30 11:01:20;;;;;;;9.45;5.45;;;;;;;;;;5045083;28;20025;-63
2023/06/30 11:03:57;;;;;;;9.10;5.87;;;;;;;;;;5033337;28;20380;-64
2023/06/30 11:06:22;;;;;;;9.77;5.00;;;;;;;;;;5033854;28;20022;-62
2023/06/30 11:09:00;;;;;;;10.90;6.20;;;;;;;;;;5042622;28;20380;-64
2023/06/30 11:11:27;;;;;;;14.07;5.57;;;;;;;;;;5033653;28;20029;-63
2023/06/30 11:14:03;;;;;;;8.93;4.78;;;;;;;;;;5033323;28;20025;-63
2023/06/30 11:16:29;;;;;;;10.30;5.22;;;;;;;;;;5038177;28;20047;-63
2023/06/30 11:19:00;;;;;;;11.63;5.47;;;;;;;;;;5053610;28;20476;-62
2023/06/30 11:21:25;;;;;;;7.97;4.57;;;;;;;;;;5053384;28;20112;-63
2023/06/30 11:23:50;;;;;;;8.43;4.50;;;;;;;;;;5053003;28;20104;-63
2023/06/30 11:26:16;;;;;;;8.32;4.57;;;;;;;;;;5045461;28;20460;-61
2023/06/30 11:28:42;;;;;;;9.27;4.60;;;;;;;;;;5033506;28;20104;-62
2023/06/30 11:31:07;;;;;;;8.52;4.97;;;;;;;;;;5033116;28;20087;-63
2023/06/30 11:33:42;;;;;;;9.27;4.97;;;;;;;;;;5032767;28;20473;-63
2023/06/30 11:36:13;;;;;;;9.52;5.15;;;;;;;;;;5031245;28;20445;-62
2023/06/30 11:38:40;;;;;;;8.65;4.95;;;;;;;;;;5033011;28;20489;-62
2023/06/30 11:41:05;;;;;;;10.55;5.22;;;;;;;;;;5032866;28;20036;-62
2023/06/30 11:43:34;;;;;;;11.25;5.50;;;;;;;;;;5032389;28;20022;-63
2023/06/30 11:45:59;;;;;;;8.65;4.50;;;;;;;;;;5032015;28;20029;-63
2023/06/30 11:48:24;;;;;;;8.67;4.63;;;;;;;;;;5032905;28;20025;-63
2023/06/30 11:50:49;;;;;;;10.45;5.35;;;;;;;;;;5032994;28;20022;-63
2023/06/30 11:53:15;;;;;;;7.37;4.27;;;;;;;;;;5032626;28;20021;-63
2023/06/30 11:55:40;;;;;;;;;;;;;;;;;;5032957;28;20388;-63
2023/06/30 11:58:08;;;;;;;7.82;3.38;;;;;;;;;;5032754;28;20486;-64
2023/06/30 12:00:33;;;;;;;7.55;3.50;;;;;;;;;;5032820;28;20022;-64
2023/06/30 12:02:59;;;;;;;5.87;3.50;;;;;;;;;;5032270;28;20032;-62
2023/06/30 12:05:25;;;;;;;;;;;;;;;;;;5033217;28;20021;-63
2023/06/30 12:07:51;;;;;;;8.55;3.83;;;;;;;;;;5040828;28;19940;-63
2023/06/30 12:10:16;;;;;;;7.68;4.10;;;;;;;;;;5052402;28;20154;-63
2023/06/30 12:12:41;;;;;;;6.80;3.97;;;;;;;;;;5051795;28;20056;-63
2023/06/30 12:15:07;;;;;;;;;;;;;;;;;;5043785;28;20032;-63
2023/06/30 12:17:34;;;;;;;8.98;4.50;;;;;;;;;;5037047;28;19923;-61
2023/06/30 12:19:59;;;;;;;7.47;4.13;;;;;;;;;;5051654;28;20045;-63
2023/06/30 12:22:29;;;;;;;7.68;4.65;;;;;;;;;;5052215;28;20370;-64
2023/06/30 12:24:55;;;;;;;7.75;4.05;;;;;;;;;;5051938;28;20056;-63
2023/06/30 12:27:20;;;;;;;9.23;4.50;;;;;;;;;;5048212;28;20021;-63
2023/06/30 12:29:46;;;;;;;;;;;;;;;;;;5041501;28;20066;-62
2023/06/30 12:32:14;;;;;;;8.88;4.30;;;;;;;;;;5055105;28;19918;-63
2023/06/30 12:34:39;;;;;;;9.35;4.20;;;;;;;;;;5057064;28;20051;-63
2023/06/30 12:37:04;;;;;;;7.20;3.72;;;;;;;;;;5054780;28;20504;-63
2023/06/30 12:39:29;;;;;;;;;;;;;;;;;;5058180;28;20028;-63
2023/06/30 12:41:54;;;;;;;5.63;3.28;;;;;;;;;;5051273;28;19917;-62
2023/06/30 12:44:20;;;;;;;;;;;;;;;;;;5052016;28;20036;-62
2023/06/30 12:46:45;;;;;;;6.85;3.25;;;;;;;;;;5046632;28;19905;-61
2023/06/30 12:49:10;;;;;;;;;;;;;;;;;;5040397;28;20029;-63
2023/06/30 12:51:35;;;;;;;7.60;4.03;;;;;;;;;;5052745;28;20558;-63
2023/06/30 12:54:00;;;;;;;;;;;;;;;;;;5054737;28;20763;-63
2023/06/30 12:56:26;;;;;;;6.65;3.58;;;;;;;;;;5047573;28;19923;-62
2023/06/30 12:58:51;;;;;;;6.43;3.97;;;;;;;;;;5050582;28;20020;-62
2023/06/30 13:01:16;;;;;;;;;;;;;;;;;;5058537;28;20342;-63
2023/06/30 13:03:41;;;;;;;6.88;4.15;;;;;;;;;;5049359;28;19952;-63
2023/06/30 13:06:07;;;;;;;;;;;;;;;;;;5051889;28;20458;-63
2023/06/30 13:08:32;;;;;;;5.70;3.90;;;;;;;;;;5052087;28;19988;-63
2023/06/30 13:10:57;;;;;;;;;;;;;;;;;;5045352;28;21009;-63
2023/06/30 13:13:22;;;;;;;7.05;3.90;;;;;;;;;;5052241;28;19916;-63
2023/06/30 13:15:47;;;;;;;8.02;4.13;;;;;;;;;;5050589;28;20539;-62
2023/06/30 13:18:13;;;;;;;7.90;4.00;;;;;;;;;;5044957;28;20016;-62
2023/06/30 13:20:38;;;;;;;6.05;3.55;;;;;;;;;;5049913;28;20033;-62
2023/06/30 13:23:03;;;;;;;7.88;4.57;;;;;;;;;;5044367;28;20543;-63
2023/06/30 13:25:29;;;;;;;9.10;3.83;;;;;;;;;;5050197;28;20035;-62
2023/06/30 13:27:54;;;;;;;5.35;3.42;;;;;;;;;;5052107;28;20047;-63
2023/06/30 13:30:19;;;;;;;;;;;;;;;;;;5041512;28;20017;-62
2023/06/30 13:32:44;;;;;;;8.80;3.70;;;;;;;;;;5035158;28;19908;-61
2023/06/30 13:35:09;;;;;;;5.83;3.33;;;;;;;;;;5036492;28;20025;-63
2023/06/30 13:37:35;;;;;;;6.72;3.85;;;;;;;;;;5034294;28;20021;-62
2023/06/30 13:40:00;;;;;;;;;;;;;;;;;;5027530;28;20671;-63
2023/06/30 13:42:25;;;;;;;10.10;4.78;;;;;;;;;;5039571;28;19932;-62
2023/06/30 13:44:50;;;;;;;10.65;5.20;;;;;;;;;;5041632;28;20546;-63
2023/06/30 13:47:15;;;;;;;;;;;;;;;;;;5044585;28;20032;-62
2023/06/30 13:49:40;;;;;;;8.55;4.65;;;;;;;;;;5045886;28;20011;-62
2023/06/30 13:52:06;;;;;;;9.60;5.27;;;;;;;;;;5046562;28;20104;-63
2023/06/30 13:54:32;;;;;;;;;;;;;;;;;;5042810;28;20021;-62
2023/06/30 13:56:57;;;;;;;13.15;6.00;;;;;;;;;;5049392;28;19916;-62
2023/06/30 13:59:23;;;;;;;13.98;6.47;;;;;;;;;;5052753;28;20542;-63
2023/06/30 14:01:48;;;;;;;;;;;;;;;;;;5045729;28;20043;-62
2023/06/30 14:04:13;;;;;;;12.25;6.20;;;;;;;;;;5051575;28;19908;-62
2023/06/30 14:06:39;;;;;;;15.45;6.80;;;;;;;;;;5044753;28;20033;-63
2023/06/30 14:09:04;;;;;;;14.02;6.50;;;;;;;;;;5047027;28;20473;-62
2023/06/30 14:11:29;;;;;;;13.30;7.00;;;;;;;;;;5042540;28;20087;-62
2023/06/30 14:13:54;;;;;;;12.90;6.40;;;;;;;;;;5046419;28;20135;-62
2023/06/30 14:16:19;;;;;;;13.63;7.38;;;;;;;;;;5044211;28;20104;-61
2023/06/30 14:18:44;;;;;;;11.67;6.73;;;;;;;;;;5047329;28;20041;-63
2023/06/30 14:21:09;;;;;;;12.60;7.17;;;;;;;;;;5047086;28;20071;-62
2023/06/30 14:23:35;;;;;;;13.90;7.20;;;;;;;;;;5046574;28;20453;-61
2023/06/30 14:26:00;;;;;;;13.10;7.47;;;;;;;;;;5045272;28;20427;-62
2023/06/30 14:28:25;;;;;;;14.77;7.75;;;;;;;;;;5045872;28;20491;-62
2023/06/30 14:30:51;;;;;;;12.80;7.65;;;;;;;;;;5044890;28;20023;-63
2023/06/30 14:33:16;;;;;;;13.37;7.87;;;;;;;;;;5046192;28;20029;-63
2023/06/30 14:35:41;;;;;;;15.23;8.30;;;;;;;;;;5043824;28;20455;-62
2023/06/30 14:38:06;;;;;;;16.00;8.50;;;;;;;;;;5041559;28;20040;-61
2023/06/30 14:40:31;;;;;;;14.07;7.70;;;;;;;;;;5034428;28;20025;-62